Time;durP1;ratioP1;P1;durP2;ratioP2;P2;SDS_P1;SDS_P2;PMS_P1;PMS_P2;Temp;Humidity;BMP_temperature;BMP_pressure;BME280_temperature;BME280_humidity;BME280_pressure;Samples;Min_cycle;Max_cycle;Signal;HPM_P1;HPM_P2
2022/04/06 00:01:51;;;;;;;4.23;3.07;;;9.80;99.90;;;;;;5075379;28;20984;-48
2022/04/06 00:04:19;;;;;;;2.60;2.40;;;9.80;99.90;;;;;;5091117;28;20441;-47
2022/04/06 00:06:47;;;;;;;4.13;2.40;;;9.80;99.90;;;;;;5081974;28;20449;-47
2022/04/06 00:09:20;;;;;;;2.70;2.20;;;9.80;99.90;;;;;;5087214;28;20191;-48
2022/04/06 00:11:49;;;;;;;3.63;2.57;;;9.80;99.90;;;;;;5071952;28;20452;-47
2022/04/06 00:14:18;;;;;;;3.00;2.70;;;9.80;99.90;;;;;;5071805;28;20545;-48
2022/04/06 00:16:46;;;;;;;3.03;2.73;;;9.80;99.90;;;;;;5072073;28;20443;-48
2022/04/06 00:19:14;;;;;;;6.50;3.40;;;9.80;99.90;;;;;;5091692;28;20532;-47
2022/04/06 00:21:42;;;;;;;3.23;2.80;;;9.80;99.90;;;;;;5091672;28;20523;-47
2022/04/06 00:24:12;;;;;;;3.73;3.40;;;9.80;99.90;;;;;;5079730;28;21088;-48
2022/04/06 00:26:41;;;;;;;2.20;2.00;;;9.80;99.90;;;;;;5082603;28;20971;-47
2022/04/06 00:29:09;;;;;;;3.00;2.40;;;9.80;99.90;;;;;;5091648;28;20462;-47
2022/04/06 00:31:37;;;;;;;3.53;2.90;;;9.80;99.90;;;;;;5090269;28;20449;-48
2022/04/06 00:34:06;;;;;;;2.67;2.47;;;9.80;99.90;;;;;;5091234;28;20499;-48
2022/04/06 00:36:34;;;;;;;4.97;2.80;;;9.70;99.90;;;;;;5091739;28;20494;-48
2022/04/06 00:39:02;;;;;;;3.53;2.37;;;9.80;99.90;;;;;;5085290;28;21030;-48
2022/04/06 00:41:30;;;;;;;2.73;2.43;;;9.70;99.90;;;;;;5081876;28;20456;-47
2022/04/06 00:44:14;;;;;;;3.40;2.20;;;9.80;99.90;;;;;;5091390;28;20449;-48
2022/04/06 00:46:43;;;;;;;4.20;2.53;;;9.80;99.90;;;;;;5086869;28;20528;-48
2022/04/06 00:49:14;;;;;;;3.00;2.70;;;9.80;99.90;;;;;;5071919;28;20830;-48
2022/04/06 00:51:45;;;;;;;6.40;2.77;;;9.80;99.90;;;;;;5088604;28;20433;-48
2022/04/06 00:54:15;;;;;;;2.47;1.80;;;9.70;99.90;;;;;;5081135;28;20454;-47
2022/04/06 00:56:44;;;;;;;4.37;2.70;;;9.80;99.90;;;;;;5071090;28;20430;-48
2022/04/06 00:59:16;;;;;;;5.00;2.90;;;9.80;99.90;;;;;;5070736;28;20438;-47
2022/04/06 01:01:46;;;;;;;2.27;1.93;;;9.80;99.90;;;;;;5073959;28;20452;-48
2022/04/06 01:04:15;;;;;;;3.03;2.40;;;9.70;99.90;;;;;;5084286;28;20454;-47
2022/04/06 01:06:44;;;;;;;2.87;2.57;;;9.70;99.90;;;;;;5069870;28;20963;-47
2022/04/06 01:09:12;;;;;;;4.33;2.00;;;9.80;99.90;;;;;;5084866;28;20448;-47
2022/04/06 01:11:42;;;;;;;2.90;2.30;;;9.70;99.90;;;;;;5090292;28;20458;-48
2022/04/06 01:14:11;;;;;;;3.00;2.70;;;9.80;99.90;;;;;;5083741;28;20894;-48
2022/04/06 01:16:40;;;;;;;3.73;2.37;;;9.80;99.90;;;;;;5072532;28;20877;-48
2022/04/06 01:19:09;;;;;;;2.50;2.30;;;9.70;99.90;;;;;;5091429;28;20437;-47
2022/04/06 01:21:40;;;;;;;2.93;2.13;;;9.80;99.90;;;;;;5090343;28;20471;-47
2022/04/06 01:24:09;;;;;;;5.03;2.10;;;9.70;99.90;;;;;;5083837;28;20469;-48
2022/04/06 01:26:37;;;;;;;2.13;2.03;;;9.70;99.90;;;;;;5070982;28;20442;-48
2022/04/06 01:29:05;;;;;;;2.47;2.17;;;9.70;99.90;;;;;;5070530;28;20517;-48
2022/04/06 01:31:34;;;;;;;3.03;2.50;;;9.70;99.90;;;;;;5075295;28;20429;-47
2022/04/06 01:34:02;;;;;;;2.70;2.50;;;9.70;99.90;;;;;;5088364;28;20474;-48
2022/04/06 01:36:30;;;;;;;2.97;2.77;;;9.70;99.90;;;;;;5081544;28;20505;-47
2022/04/06 01:38:58;;;;;;;2.50;2.10;;;9.80;99.90;;;;;;5081658;28;20890;-48
2022/04/06 01:41:32;;;;;;;3.07;2.50;;;9.70;99.90;;;;;;5090978;28;20796;-48
2022/04/06 01:44:01;;;;;;;3.00;2.30;;;9.80;99.90;;;;;;5090641;28;20797;-48
2022/04/06 01:46:29;;;;;;;4.40;2.50;;;9.80;99.90;;;;;;5085212;28;20574;-47
2022/04/06 01:54:29;;;;;;;2.60;2.37;;;9.70;99.90;;;;;;5081370;28;20510;-48
2022/04/06 01:56:58;;;;;;;3.37;2.23;;;9.80;99.90;;;;;;5070161;28;20454;-47
2022/04/06 01:59:27;;;;;;;2.70;2.30;;;9.80;99.90;;;;;;5069957;28;20442;-48
2022/04/06 02:01:56;;;;;;;3.77;2.13;;;9.70;99.90;;;;;;5073893;28;20449;-47
2022/04/06 02:04:24;;;;;;;2.33;2.13;;;9.70;99.90;;;;;;5077843;28;20476;-48
2022/04/06 02:06:52;;;;;;;2.30;2.20;;;9.80;99.90;;;;;;5070020;28;20460;-47
2022/04/06 02:09:20;;;;;;;4.43;2.40;;;9.70;99.90;;;;;;5089417;28;20932;-48
2022/04/06 02:11:49;;;;;;;2.90;2.70;;;9.70;99.90;;;;;;5089768;28;20916;-48
2022/04/06 02:14:18;;;;;;;2.60;2.40;;;9.70;99.90;;;;;;5087412;28;20483;-47
2022/04/06 02:16:46;;;;;;;2.23;1.97;;;9.80;99.90;;;;;;5089116;28;20433;-47
2022/04/06 02:19:15;;;;;;;2.87;2.67;;;9.70;99.90;;;;;;5089556;28;20441;-47
2022/04/06 02:21:43;;;;;;;2.60;2.20;;;9.70;99.90;;;;;;5089716;28;20457;-48
2022/04/06 02:24:11;;;;;;;2.87;2.27;;;9.70;99.90;;;;;;5084245;28;20541;-48
2022/04/06 02:26:39;;;;;;;2.43;2.23;;;9.70;99.90;;;;;;5069856;28;20779;-48
2022/04/06 02:29:07;;;;;;;2.27;2.13;;;9.80;99.90;;;;;;5069839;28;20949;-48
2022/04/06 02:31:37;;;;;;;3.03;2.73;;;9.70;99.90;;;;;;5070014;28;20481;-48
2022/04/06 02:34:06;;;;;;;3.70;2.47;;;9.70;99.90;;;;;;5068926;28;20895;-47
2022/04/06 02:36:34;;;;;;;5.70;3.30;;;9.70;99.90;;;;;;5070373;28;20480;-48
2022/04/06 02:39:02;;;;;;;2.67;2.00;;;9.70;99.90;;;;;;5082453;28;20461;-47
2022/04/06 02:41:30;;;;;;;3.20;2.57;;;9.70;99.90;;;;;;5082068;28;20462;-48
2022/04/06 02:43:58;;;;;;;3.70;2.53;;;9.70;99.90;;;;;;5069896;28;20552;-48
2022/04/06 02:46:26;;;;;;;3.10;2.20;;;9.70;99.90;;;;;;5087925;28;20464;-47
2022/04/06 02:48:55;;;;;;;4.20;2.63;;;9.70;99.90;;;;;;5093303;28;20667;-48
2022/04/06 02:51:24;;;;;;;5.70;2.67;;;9.80;99.90;;;;;;5089491;28;20463;-47
2022/04/06 02:53:52;;;;;;;2.63;2.20;;;9.70;99.90;;;;;;5083162;28;20910;-47
2022/04/06 02:56:20;;;;;;;3.00;2.70;;;9.70;99.90;;;;;;5094199;28;20961;-47
2022/04/06 02:58:48;;;;;;;2.37;2.10;;;9.70;99.90;;;;;;5084776;28;21055;-47
2022/04/06 03:01:16;;;;;;;3.97;2.37;;;9.70;99.90;;;;;;5078062;28;20451;-47
2022/04/06 03:03:45;;;;;;;2.60;2.40;;;9.70;99.90;;;;;;5082699;28;20469;-48
2022/04/06 03:06:14;;;;;;;2.40;2.20;;;9.70;99.90;;;;;;5079209;28;20498;-47
2022/04/06 03:08:42;;;;;;;3.20;2.43;;;9.70;99.90;;;;;;5081923;28;20890;-47
2022/04/06 03:11:10;;;;;;;2.90;2.47;;;9.70;99.90;;;;;;5094084;28;20466;-47
2022/04/06 03:13:38;;;;;;;3.63;2.13;;;9.70;99.90;;;;;;5086096;28;20466;-48
2022/04/06 03:16:07;;;;;;;2.23;2.13;;;9.70;99.90;;;;;;5091724;28;20437;-48
2022/04/06 03:18:35;;;;;;;2.60;2.40;;;9.70;99.90;;;;;;5088171;28;20539;-48
2022/04/06 03:21:03;;;;;;;2.80;2.50;;;9.70;99.90;;;;;;5084414;28;20424;-48
2022/04/06 03:23:33;;;;;;;2.90;2.60;;;9.70;99.90;;;;;;5091409;28;21079;-47
2022/04/06 03:26:01;;;;;;;2.70;2.20;;;9.70;99.90;;;;;;5092283;28;20843;-47
2022/04/06 03:28:29;;;;;;;3.33;2.57;;;9.70;99.90;;;;;;5093075;28;20504;-47
2022/04/06 03:30:57;;;;;;;4.93;2.37;;;9.70;99.90;;;;;;5093452;28;20429;-48
2022/04/06 03:33:25;;;;;;;2.40;2.13;;;9.70;99.90;;;;;;5090535;28;20579;-47
2022/04/06 03:35:54;;;;;;;1.93;1.80;;;9.70;99.90;;;;;;5073928;28;20422;-48
2022/04/06 03:38:22;;;;;;;2.30;2.10;;;9.70;99.90;;;;;;5079599;28;20515;-47
2022/04/06 03:40:52;;;;;;;4.70;2.50;;;9.70;99.90;;;;;;5094008;28;20463;-47
2022/04/06 03:43:20;;;;;;;4.43;2.43;;;9.70;99.90;;;;;;5080344;28;20469;-48
2022/04/06 03:45:48;;;;;;;2.77;2.57;;;9.70;99.90;;;;;;5072234;28;20434;-47
2022/04/06 03:48:16;;;;;;;3.27;2.50;;;9.70;99.90;;;;;;5089243;28;20486;-47
2022/04/06 03:50:44;;;;;;;2.67;2.40;;;9.70;99.90;;;;;;5083226;28;20466;-48
2022/04/06 03:53:12;;;;;;;2.40;2.13;;;9.70;99.90;;;;;;5076766;28;20472;-47
2022/04/06 03:55:40;;;;;;;2.80;2.50;;;9.70;99.90;;;;;;5092915;28;20486;-47
2022/04/06 03:58:10;;;;;;;4.03;2.50;;;9.70;99.90;;;;;;5091993;28;20505;-48
2022/04/06 04:00:38;;;;;;;3.70;2.07;;;9.70;99.90;;;;;;5091547;28;20460;-47
2022/04/06 04:03:06;;;;;;;2.57;2.37;;;9.70;99.90;;;;;;5089452;28;20813;-47
2022/04/06 04:05:35;;;;;;;4.80;2.40;;;9.70;99.90;;;;;;5072454;28;20557;-47
2022/04/06 04:08:04;;;;;;;3.30;1.93;;;9.70;99.90;;;;;;5075291;28;20475;-47
2022/04/06 04:10:32;;;;;;;4.33;1.80;;;9.70;99.90;;;;;;5088074;28;20528;-47
2022/04/06 04:13:00;;;;;;;6.70;2.23;;;9.70;99.90;;;;;;5071847;28;20987;-47
2022/04/06 04:15:31;;;;;;;4.10;2.37;;;9.70;99.90;;;;;;5071383;28;20961;-47
2022/04/06 04:17:59;;;;;;;4.23;2.07;;;9.70;99.90;;;;;;5085562;28;20518;-47
2022/04/06 04:20:27;;;;;;;3.63;2.00;;;9.70;99.90;;;;;;5093124;28;20931;-48
2022/04/06 04:22:55;;;;;;;3.47;2.33;;;9.70;99.90;;;;;;5091249;28;20987;-48
2022/04/06 04:25:23;;;;;;;2.43;2.23;;;9.70;99.90;;;;;;5092363;28;20493;-47
2022/04/06 04:27:51;;;;;;;2.40;2.20;;;9.70;99.90;;;;;;5092272;28;20457;-48
2022/04/06 04:30:21;;;;;;;4.17;2.53;;;9.70;99.90;;;;;;5092462;28;20455;-47
2022/04/06 04:32:51;;;;;;;2.08;1.92;;;9.70;99.90;;;;;;5090884;28;21023;-48
2022/04/06 04:35:19;;;;;;;3.10;2.60;;;9.70;99.90;;;;;;5092201;28;20234;-47
2022/04/06 04:37:47;;;;;;;2.40;2.00;;;9.70;99.90;;;;;;5082707;28;20470;-47
2022/04/06 04:40:16;;;;;;;3.27;2.17;;;9.70;99.90;;;;;;5091921;28;20440;-47
2022/04/06 04:42:44;;;;;;;2.80;2.43;;;9.70;99.90;;;;;;5090604;28;20496;-48
2022/04/06 04:45:12;;;;;;;3.10;2.47;;;9.70;99.90;;;;;;5082771;28;20458;-47
2022/04/06 04:47:40;;;;;;;3.70;2.00;;;9.70;99.90;;;;;;5094093;28;20463;-47
2022/04/06 04:50:10;;;;;;;2.10;2.00;;;9.70;99.90;;;;;;5083823;28;20820;-48
2022/04/06 04:52:38;;;;;;;2.83;2.27;;;9.70;99.90;;;;;;5072489;28;20455;-48
2022/04/06 04:55:07;;;;;;;2.30;2.03;;;9.70;99.90;;;;;;5091309;28;20461;-47
2022/04/06 04:57:35;;;;;;;2.50;2.30;;;9.70;99.90;;;;;;5091953;28;20453;-47
2022/04/06 05:00:06;;;;;;;2.27;2.03;;;9.70;99.90;;;;;;5091861;28;20441;-48
2022/04/06 05:02:34;;;;;;;2.10;1.90;;;9.70;99.90;;;;;;5066605;22;20971;-47
2022/04/06 05:05:02;;;;;;;3.43;2.07;;;9.70;99.90;;;;;;5008269;28;20518;-49
2022/04/06 05:07:33;;;;;;;2.10;1.90;;;9.70;99.90;;;;;;5017895;28;20469;-46
2022/04/06 05:10:02;;;;;;;3.03;2.20;;;9.70;99.90;;;;;;5028519;28;20201;-48
2022/04/06 05:12:30;;;;;;;1.93;1.80;;;9.70;99.90;;;;;;5022586;28;20496;-47
2022/04/06 05:14:59;;;;;;;2.50;2.30;;;9.70;99.90;;;;;;5011647;28;20464;-46
2022/04/06 05:17:28;;;;;;;2.80;1.93;;;9.70;99.90;;;;;;5017191;28;20979;-49
2022/04/06 05:19:57;;;;;;;2.50;2.30;;;9.70;99.90;;;;;;5028457;28;20432;-47
2022/04/06 05:22:26;;;;;;;3.03;2.23;;;9.70;99.90;;;;;;5030814;28;20480;-47
2022/04/06 05:24:55;;;;;;;4.70;2.03;;;9.70;99.90;;;;;;5027279;28;20990;-47
2022/04/06 05:27:24;;;;;;;2.80;2.23;;;9.70;99.90;;;;;;5026564;28;20558;-47
2022/04/06 05:29:52;;;;;;;1.87;1.67;;;9.70;99.90;;;;;;5031204;28;20448;-47
2022/04/06 05:32:20;;;;;;;2.40;2.08;;;9.70;99.90;;;;;;5023438;28;21015;-47
2022/04/06 05:34:49;;;;;;;1.70;1.60;;;9.70;99.90;;;;;;5024413;28;20274;-47
2022/04/06 05:37:17;;;;;;;2.33;2.17;;;9.70;99.90;;;;;;5029889;28;20674;-48
2022/04/06 05:39:46;;;;;;;2.57;1.33;;;9.70;99.90;;;;;;5022017;28;20455;-47
2022/04/06 05:42:15;;;;;;;2.87;2.30;;;9.70;99.90;;;;;;5031037;28;20463;-46
2022/04/06 05:44:43;;;;;;;2.67;2.10;;;9.70;99.90;;;;;;5030361;28;20546;-47
2022/04/06 05:47:13;;;;;;;2.47;2.27;;;9.70;99.90;;;;;;5021815;28;20812;-46
2022/04/06 05:49:41;;;;;;;3.20;2.13;;;9.70;99.90;;;;;;5020435;28;20471;-49
2022/04/06 05:52:11;;;;;;;2.20;2.03;;;9.70;99.90;;;;;;5028894;28;20839;-47
2022/04/06 05:54:40;;;;;;;2.97;1.92;;;9.70;99.90;;;;;;5019828;28;20813;-46
2022/04/06 05:57:11;;;;;;;3.60;2.00;;;9.70;99.90;;;;;;5026638;28;20266;-46
2022/04/06 05:59:40;;;;;;;3.10;1.83;;;9.70;99.90;;;;;;5030647;28;20851;-49
2022/04/06 06:02:08;;;;;;;2.23;1.70;;;9.70;99.90;;;;;;5013756;28;20585;-47
2022/04/06 06:04:38;;;;;;;3.57;1.83;;;9.70;99.90;;;;;;5010846;28;20721;-46
2022/04/06 06:07:06;;;;;;;3.85;2.20;;;9.70;99.90;;;;;;5030127;28;20478;-47
2022/04/06 06:09:35;;;;;;;2.05;1.80;;;9.70;99.90;;;;;;5012736;28;20194;-47
2022/04/06 06:12:04;;;;;;;3.20;2.00;;;9.70;99.90;;;;;;5028969;28;20227;-48
2022/04/06 06:14:32;;;;;;;4.37;2.47;;;9.70;99.90;;;;;;5030457;28;20454;-47
2022/04/06 06:17:02;;;;;;;3.10;1.57;;;9.70;99.90;;;;;;5030016;28;20452;-46
2022/04/06 06:19:30;;;;;;;2.30;2.10;;;9.70;99.90;;;;;;5013035;28;20452;-47
2022/04/06 06:21:58;;;;;;;1.60;1.50;;;9.70;99.90;;;;;;5030127;28;20247;-47
2022/04/06 06:24:26;;;;;;;2.30;2.10;;;9.70;99.90;;;;;;5013565;28;20217;-48
2022/04/06 06:26:55;;;;;;;2.60;1.63;;;9.70;99.90;;;;;;5027760;28;20467;-47
2022/04/06 06:29:23;;;;;;;2.50;2.03;;;9.70;99.90;;;;;;5030492;28;20427;-48
2022/04/06 06:31:51;;;;;;;2.50;2.30;;;9.70;99.90;;;;;;5027250;28;20447;-47
2022/04/06 06:34:21;;;;;;;1.90;1.75;;;9.70;99.90;;;;;;5026962;28;20456;-46
2022/04/06 06:36:49;;;;;;;2.08;1.48;;;9.70;99.90;;;;;;5030246;28;20192;-47
2022/04/06 06:39:18;;;;;;;2.40;2.20;;;9.70;99.90;;;;;;5016032;28;20317;-47
2022/04/06 06:41:46;;;;;;;2.43;2.20;;;9.70;99.90;;;;;;5030079;28;20432;-46
2022/04/06 06:44:15;;;;;;;3.30;1.80;;;9.70;99.90;;;;;;5029832;28;20905;-47
2022/04/06 06:46:43;;;;;;;1.97;1.80;;;9.70;99.90;;;;;;5029718;28;20473;-47
2022/04/06 06:49:11;;;;;;;3.00;1.70;;;9.70;99.90;;;;;;5015917;28;20807;-48
2022/04/06 06:51:44;;;;;;;2.63;1.50;;;9.70;99.90;;;;;;5030007;28;20941;-46
2022/04/06 06:54:12;;;;;;;1.90;1.80;;;9.70;99.90;;;;;;5019750;28;20467;-45
2022/04/06 06:56:40;;;;;;;2.50;2.30;;;9.70;99.90;;;;;;5029952;28;20453;-47
2022/04/06 06:59:08;;;;;;;2.27;1.97;;;9.70;99.90;;;;;;5029781;28;20963;-47
2022/04/06 07:01:36;;;;;;;2.13;1.80;;;9.70;99.90;;;;;;5016488;28;20454;-48
2022/04/06 07:04:05;;;;;;;1.77;1.67;;;9.70;99.90;;;;;;5024386;28;20764;-46
2022/04/06 07:06:33;;;;;;;2.00;1.50;;;9.70;99.90;;;;;;5030293;28;20867;-46
2022/04/06 07:09:02;;;;;;;2.20;1.53;;;9.70;99.90;;;;;;5026342;28;20981;-48
2022/04/06 07:11:31;;;;;;;3.90;1.87;;;9.70;99.90;;;;;;5029792;28;20954;-47
2022/04/06 07:13:59;;;;;;;2.50;1.70;;;9.70;99.90;;;;;;5028614;28;20483;-48
2022/04/06 07:16:29;;;;;;;3.60;2.23;;;9.70;99.90;;;;;;5028298;28;20778;-46
2022/04/06 07:18:57;;;;;;;3.23;1.90;;;9.70;99.90;;;;;;5029035;28;20500;-47
2022/04/06 07:21:25;;;;;;;2.07;1.80;;;9.70;99.90;;;;;;5029086;28;20523;-48
2022/04/06 07:23:55;;;;;;;2.37;1.80;;;9.70;99.90;;;;;;5020169;28;20990;-47
2022/04/06 07:26:25;;;;;;;3.03;1.80;;;9.70;99.90;;;;;;5029985;28;20464;-47
2022/04/06 07:28:53;;;;;;;2.40;1.50;;;9.70;99.90;;;;;;5026519;28;20605;-47
2022/04/06 07:31:22;;;;;;;2.10;1.53;;;9.70;99.90;;;;;;5019747;28;20440;-48
2022/04/06 07:33:51;;;;;;;1.93;1.57;;;9.70;99.90;;;;;;5015707;28;20467;-45
2022/04/06 07:36:19;;;;;;;1.80;1.50;;;9.70;99.90;;;;;;5030314;28;20494;-47
2022/04/06 07:38:47;;;;;;;2.10;1.50;;;9.70;99.90;;;;;;5010739;28;20476;-48
2022/04/06 07:41:15;;;;;;;2.93;1.47;;;9.70;99.90;;;;;;5011512;28;20440;-44
2022/04/06 07:43:46;;;;;;;3.65;2.22;;;9.70;99.90;;;;;;5023804;28;20446;-48
2022/04/06 07:46:14;;;;;;;1.70;1.60;;;9.70;99.90;;;;;;5029460;28;20261;-45
2022/04/06 07:48:43;;;;;;;2.30;2.10;;;9.70;99.90;;;;;;5011287;28;20477;-47
2022/04/06 07:51:12;;;;;;;3.83;1.98;;;9.70;99.90;;;;;;5005772;28;20427;-48
2022/04/06 07:53:40;;;;;;;3.00;1.90;;;9.70;99.90;;;;;;5019202;28;20316;-48
2022/04/06 07:56:08;;;;;;;2.50;1.57;;;9.70;99.90;;;;;;5025651;28;20432;-46
2022/04/06 07:58:37;;;;;;;3.00;1.53;;;9.70;99.90;;;;;;5032361;28;20465;-45
2022/04/06 08:01:08;;;;;;;1.47;1.37;;;9.70;99.90;;;;;;5028830;28;20446;-48
2022/04/06 08:03:37;;;;;;;2.20;1.90;;;9.70;99.90;;;;;;5015409;28;20476;-49
2022/04/06 08:06:05;;;;;;;1.70;1.60;;;9.70;99.90;;;;;;5012461;28;20451;-45
2022/04/06 08:08:34;;;;;;;2.50;1.80;;;9.70;99.90;;;;;;5021357;28;20472;-47
2022/04/06 08:11:04;;;;;;;1.70;1.60;;;9.70;99.90;;;;;;5030615;28;20791;-46
2022/04/06 08:13:33;;;;;;;2.05;1.85;;;9.70;99.90;;;;;;5029241;28;20476;-45
2022/04/06 08:16:01;;;;;;;5.60;1.97;;;9.70;99.90;;;;;;5032783;28;20185;-47
2022/04/06 08:18:31;;;;;;;1.63;1.50;;;9.70;99.90;;;;;;5028013;28;20527;-45
2022/04/06 08:20:59;;;;;;;2.83;1.87;;;9.70;99.90;;;;;;5024310;28;20452;-46
2022/04/06 08:23:27;;;;;;;2.40;1.73;;;9.70;99.90;;;;;;5003303;28;20474;-48
2022/04/06 08:25:55;;;;;;;2.10;1.73;;;9.70;99.90;;;;;;4998053;28;20440;-48
2022/04/06 08:28:24;;;;;;;1.67;1.50;;;9.70;99.90;;;;;;5025848;28;20468;-46
2022/04/06 08:30:52;;;;;;;5.93;1.70;;;9.70;99.90;;;;;;5027619;28;20445;-46
2022/04/06 08:33:20;;;;;;;4.33;1.87;;;9.70;99.90;;;;;;5031064;28;20482;-48
2022/04/06 08:35:56;;;;;;;1.43;1.33;;;9.70;99.90;;;;;;5031286;28;21117;-50
2022/04/06 08:38:24;;;;;;;3.03;2.03;;;9.70;99.90;;;;;;5023745;28;20572;-48
2022/04/06 08:40:54;;;;;;;1.90;1.67;;;9.70;99.90;;;;;;5029883;28;20432;-48
2022/04/06 08:43:22;;;;;;;2.33;1.83;;;9.70;99.90;;;;;;5031763;28;20880;-46
2022/04/06 08:45:51;;;;;;;2.27;1.60;;;9.70;99.90;;;;;;5031465;28;20820;-48
2022/04/06 08:48:21;;;;;;;1.70;1.60;;;9.70;99.90;;;;;;5017582;28;20467;-47
2022/04/06 08:50:52;;;;;;;2.70;2.27;;;9.70;99.90;;;;;;5029180;28;20462;-47
2022/04/06 08:53:23;;;;;;;1.60;1.50;;;9.70;99.90;;;;;;5012554;28;20966;-44
2022/04/06 08:55:55;;;;;;;2.30;1.50;;;9.70;99.90;;;;;;5007771;28;20852;-48
2022/04/06 08:58:24;;;;;;;3.00;2.00;;;9.70;99.90;;;;;;5010260;28;20545;-47
2022/04/06 09:00:53;;;;;;;2.33;1.70;;;9.70;99.90;;;;;;5009143;28;20443;-45
2022/04/06 09:03:22;;;;;;;2.63;1.60;;;9.70;99.90;;;;;;5024734;28;20570;-49
2022/04/06 09:06:00;;;;;;;5.73;2.00;;;9.70;99.90;;;;;;5029806;28;20927;-45
2022/04/06 09:08:39;;;;;;;2.53;1.50;;;9.70;99.90;;;;;;5007496;28;21205;-46
2022/04/06 09:11:08;;;;;;;2.77;1.60;;;9.70;99.90;;;;;;5009898;28;20957;-47
2022/04/06 09:13:37;;;;;;;1.70;1.60;;;9.70;99.90;;;;;;5026363;28;20507;-46
2022/04/06 09:16:08;;;;;;;2.43;1.50;;;9.70;99.90;;;;;;5026875;28;20448;-47
2022/04/06 09:18:38;;;;;;;2.70;1.43;;;9.70;99.90;;;;;;5028921;28;20476;-48
2022/04/06 09:21:06;;;;;;;1.43;1.33;;;9.70;99.90;;;;;;5031254;28;20770;-48
2022/04/06 09:23:37;;;;;;;2.67;2.00;;;9.70;99.90;;;;;;5027851;28;20502;-49
2022/04/06 09:26:29;;;;;;;3.73;1.37;;;9.70;99.90;;;;;;5027519;28;20432;-48
2022/04/06 09:29:00;;;;;;;1.85;1.60;;;9.70;99.90;;;;;;5022571;28;20471;-47
2022/04/06 09:31:38;;;;;;;2.10;1.20;;;9.70;99.90;;;;;;5019372;28;20210;-46
2022/04/06 09:34:10;;;;;;;1.70;1.50;;;9.70;99.90;;;;;;5023554;28;20474;-47
2022/04/06 09:36:39;;;;;;;1.97;1.40;;;9.70;99.90;;;;;;5025746;28;20808;-48
2022/04/06 09:39:10;;;;;;;3.67;2.53;;;9.70;99.90;;;;;;5017851;28;20476;-45
2022/04/06 09:42:06;;;;;;;1.43;1.33;;;9.70;99.90;;;;;;5038403;28;20534;-45
2022/04/06 09:47:42;;;;;;;1.40;1.10;;;9.70;99.90;;;;;;5024851;28;20486;-49
2022/04/06 09:50:17;;;;;;;2.27;1.47;;;9.70;99.90;;;;;;5016817;28;20519;-46
2022/04/06 09:52:51;;;;;;;2.07;1.23;;;9.70;99.90;;;;;;5025227;28;20525;-45
2022/04/06 09:55:22;;;;;;;2.00;1.53;;;9.70;99.90;;;;;;5024964;28;20490;-48
2022/04/06 09:57:51;;;;;;;1.60;1.50;;;9.70;99.90;;;;;;5028930;28;20490;-46
2022/04/06 10:00:21;;;;;;;2.13;1.60;;;9.70;99.90;;;;;;5031031;28;20439;-48
2022/04/06 10:02:59;;;;;;;1.33;1.23;;;9.70;99.90;;;;;;5016395;28;20901;-46
2022/04/06 10:05:30;;;;;;;3.37;1.30;;;9.70;99.90;;;;;;5028760;28;20461;-43
2022/04/06 10:08:01;;;;;;;2.60;1.30;;;9.70;99.90;;;;;;5021403;28;20596;-46
2022/04/06 10:10:31;;;;;;;2.60;1.17;;;9.80;99.90;;;;;;5030202;28;20481;-49
2022/04/06 10:13:00;;;;;;;1.93;1.07;;;9.80;99.90;;;;;;5029542;28;21072;-48
2022/04/06 10:15:48;;;;;;;2.03;1.13;;;9.80;99.90;;;;;;5029501;28;20938;-48
2022/04/06 10:18:18;;;;;;;1.40;1.30;;;9.80;99.90;;;;;;5021499;28;20478;-47
2022/04/06 10:20:52;;;;;;;2.20;1.57;;;9.80;99.90;;;;;;5029418;28;20440;-45
2022/04/06 10:23:29;;;;;;;2.20;1.23;;;9.80;99.90;;;;;;5022975;28;20468;-46
2022/04/06 10:26:34;;;;;;;1.40;1.20;;;9.80;99.90;;;;;;5026752;28;20468;-47
2022/04/06 10:29:05;;;;;;;1.63;1.53;;;9.80;99.90;;;;;;5029660;28;20522;-46
2022/04/06 10:31:33;;;;;;;1.73;0.80;;;9.80;99.90;;;;;;5026553;28;20444;-46
2022/04/06 10:34:22;;;;;;;1.13;1.00;;;9.80;99.90;;;;;;5016486;28;20471;-47
2022/04/06 10:37:11;;;;;;;3.13;1.23;;;9.90;99.90;;;;;;5030320;28;20444;-48
2022/04/06 10:40:00;;;;;;;2.27;1.20;;;9.90;99.90;;;;;;5011904;28;20444;-46
2022/04/06 10:42:35;;;;;;;2.40;1.10;;;9.90;99.90;;;;;;5028110;28;20990;-46
2022/04/06 10:45:05;;;;;;;5.10;1.53;;;9.80;99.90;;;;;;5030466;28;20870;-47
2022/04/06 10:47:33;;;;;;;2.00;1.30;;;9.80;99.90;;;;;;5014792;28;20476;-47
2022/04/06 10:50:24;;;;;;;2.90;1.10;;;9.80;99.90;;;;;;5011094;28;20935;-46
2022/04/06 10:53:25;;;;;;;2.17;1.13;;;9.80;99.90;;;;;;5009938;28;20476;-46
2022/04/06 10:56:01;;;;;;;1.57;1.20;;;9.80;99.90;;;;;;5011455;28;20487;-48
2022/04/06 10:59:15;;;;;;;1.60;1.43;;;9.80;99.90;;;;;;5029335;28;20467;-47
2022/04/06 11:01:46;;;;;;;1.37;0.93;;;9.80;99.90;;;;;;5028293;28;21050;-46
2022/04/06 11:04:19;;;;;;;2.03;1.00;;;9.80;99.90;;;;;;5028594;28;20531;-48
2022/04/06 11:06:55;;;;;;;1.60;1.13;;;9.90;99.90;;;;;;5030616;28;20434;-46
2022/04/06 11:12:15;;;;;;;1.10;1.00;;;9.80;99.90;;;;;;5032073;28;21040;-48
2022/04/06 11:14:47;;;;;;;1.37;1.00;;;9.80;99.90;;;;;;5033069;28;20542;-48
2022/04/06 11:17:37;;;;;;;1.70;1.20;;;9.80;99.90;;;;;;5032565;28;20474;-46
2022/04/06 11:20:08;;;;;;;1.30;1.20;;;9.90;99.90;;;;;;5025649;28;20440;-47
2022/04/06 11:22:38;;;;;;;1.60;1.27;;;9.80;99.90;;;;;;5028970;28;20467;-46
2022/04/06 11:25:11;;;;;;;3.20;2.43;;;9.90;99.90;;;;;;5032739;28;20521;-45
2022/04/06 11:27:41;;;;;;;3.73;1.13;;;9.90;99.90;;;;;;5033282;28;20478;-47
2022/04/06 11:30:13;;;;;;;1.30;1.20;;;9.90;99.90;;;;;;5033680;28;20999;-48
2022/04/06 11:32:43;;;;;;;1.27;0.90;;;9.90;99.90;;;;;;5031211;28;20541;-48
2022/04/06 11:35:13;;;;;;;1.00;0.90;;;9.90;99.90;;;;;;5033163;28;20491;-48
2022/04/06 11:37:43;;;;;;;1.73;1.20;;;9.80;99.90;;;;;;5030871;28;20510;-49
2022/04/06 11:40:12;;;;;;;0.97;0.87;;;9.90;99.90;;;;;;5028113;28;20802;-47
2022/04/06 11:42:41;;;;;;;1.57;1.30;;;9.90;99.90;;;;;;5031528;28;20456;-47
2022/04/06 11:45:11;;;;;;;1.07;1.00;;;9.90;99.90;;;;;;5033380;28;20444;-48
2022/04/06 11:47:39;;;;;;;1.93;0.90;;;9.90;99.90;;;;;;5031669;28;20475;-46
2022/04/06 11:50:12;;;;;;;1.73;1.10;;;9.90;99.90;;;;;;5033199;28;20436;-48
2022/04/06 11:52:42;;;;;;;1.27;1.17;;;9.90;99.90;;;;;;5030775;28;20570;-47
2022/04/06 11:55:10;;;;;;;1.27;0.80;;;9.90;99.90;;;;;;5013260;28;20448;-47
2022/04/06 11:57:39;;;;;;;0.83;0.83;;;9.90;99.90;;;;;;5021701;28;20467;-48
2022/04/06 12:00:09;;;;;;;1.17;1.10;;;9.90;99.90;;;;;;5033761;28;20427;-48
2022/04/06 12:02:50;;;;;;;1.05;0.95;;;9.90;99.90;;;;;;5030391;28;20902;-45
2022/04/06 12:05:18;;;;;;;1.93;1.13;;;9.90;99.90;;;;;;5032759;28;20303;-49
2022/04/06 12:08:08;;;;;;;2.60;1.90;;;9.90;99.90;;;;;;5028949;28;20481;-48
2022/04/06 12:10:36;;;;;;;1.50;1.40;;;9.90;99.90;;;;;;5027568;28;20496;-46
2022/04/06 12:13:06;;;;;;;0.90;0.80;;;9.90;99.90;;;;;;5032455;28;20472;-48
2022/04/06 12:15:35;;;;;;;1.87;1.20;;;9.90;99.90;;;;;;5032985;28;20923;-47
2022/04/06 12:18:04;;;;;;;1.80;1.47;;;9.90;99.90;;;;;;5018947;28;20543;-47
2022/04/06 12:20:33;;;;;;;2.23;1.50;;;9.90;99.90;;;;;;5031210;28;20432;-46
2022/04/06 12:23:03;;;;;;;1.43;1.13;;;9.90;99.90;;;;;;5031024;28;20482;-48
2022/04/06 12:25:33;;;;;;;1.20;1.10;;;9.90;99.90;;;;;;5033382;28;20444;-47
2022/04/06 12:28:18;;;;;;;3.00;0.97;;;9.90;99.90;;;;;;5032145;28;20494;-46
2022/04/06 12:30:58;;;;;;;2.00;0.90;;;9.90;99.90;;;;;;5031447;28;20440;-46
2022/04/06 12:33:35;;;;;;;1.50;1.27;;;10.00;99.90;;;;;;5021907;28;20503;-46
2022/04/06 12:36:15;;;;;;;2.00;1.27;;;10.00;99.90;;;;;;5027064;28;20436;-48
2022/04/06 12:38:58;;;;;;;1.47;1.10;;;10.00;99.90;;;;;;5021578;28;21012;-47
2022/04/06 12:41:26;;;;;;;1.10;1.00;;;10.00;99.90;;;;;;5032898;28;20808;-47
2022/04/06 12:43:55;;;;;;;2.03;0.90;;;10.00;99.90;;;;;;5032891;28;20522;-48
2022/04/06 12:46:41;;;;;;;1.00;1.00;;;10.00;99.90;;;;;;5027596;28;20445;-49
2022/04/06 12:49:25;;;;;;;1.53;1.00;;;10.00;99.90;;;;;;4994161;28;21028;-48
2022/04/06 12:52:14;;;;;;;0.87;0.83;;;10.00;99.90;;;;;;5013913;28;20429;-49
2022/04/06 12:54:45;;;;;;;1.33;1.20;;;10.00;99.90;;;;;;5011604;28;20464;-46
2022/04/06 12:57:17;;;;;;;2.60;1.17;;;10.00;99.90;;;;;;5013052;28;20523;-48
2022/04/06 12:59:48;;;;;;;1.63;1.10;;;10.00;99.90;;;;;;4994447;28;20414;-50
2022/04/06 13:02:21;;;;;;;2.00;1.17;;;10.00;99.90;;;;;;4993357;28;20935;-48
2022/04/06 13:04:53;;;;;;;1.97;1.20;;;10.00;99.90;;;;;;5001084;28;20456;-49
2022/04/06 13:07:22;;;;;;;2.23;1.00;;;10.00;99.90;;;;;;5012419;28;20473;-49
2022/04/06 13:10:08;;;;;;;1.17;1.00;;;10.00;99.90;;;;;;5005588;28;20460;-45
2022/04/06 13:12:37;;;;;;;1.90;1.27;;;10.00;99.90;;;;;;5009262;28;20473;-47
2022/04/06 13:15:07;;;;;;;2.43;1.50;;;10.00;99.90;;;;;;5011863;28;20461;-48
2022/04/06 13:17:37;;;;;;;1.67;1.30;;;10.00;99.90;;;;;;4991416;28;20461;-46
2022/04/06 13:20:09;;;;;;;1.03;0.87;;;10.00;99.90;;;;;;4992649;28;20432;-47
2022/04/06 13:22:37;;;;;;;1.40;1.10;;;10.00;99.90;;;;;;4991549;28;20837;-48
2022/04/06 13:25:07;;;;;;;2.60;1.13;;;10.00;99.90;;;;;;4992866;28;20525;-47